sensor_id;sensor_type;location;lat;lon;timestamp;pressure;altitude;pressure_sealevel;temperature;humidity
54816;BME280;40715;55.752;37.884;2023-05-08T00:01:24;100416.75;;;30.38;21.34
54816;BME280;40715;55.752;37.884;2023-05-08T00:03:51;100427.47;;;30.40;21.03
54816;BME280;40715;55.752;37.884;2023-05-08T00:06:18;100417.63;;;30.39;21.22
54816;BME280;40715;55.752;37.884;2023-05-08T00:08:45;100426.75;;;30.38;21.06
54816;BME280;40715;55.752;37.884;2023-05-08T00:11:12;100424.91;;;30.38;21.32
54816;BME280;40715;55.752;37.884;2023-05-08T00:13:39;100426.63;;;30.39;21.25
54816;BME280;40715;55.752;37.884;2023-05-08T00:16:07;100431.22;;;30.39;21.41
54816;BME280;40715;55.752;37.884;2023-05-08T00:18:38;100427.06;;;30.35;21.31
54816;BME280;40715;55.752;37.884;2023-05-08T00:21:05;100430.34;;;30.38;21.04
54816;BME280;40715;55.752;37.884;2023-05-08T00:23:34;100437.50;;;30.39;21.15
54816;BME280;40715;55.752;37.884;2023-05-08T00:26:01;100439.38;;;30.39;20.90
54816;BME280;40715;55.752;37.884;2023-05-08T00:28:28;100443.94;;;30.38;21.03
54816;BME280;40715;55.752;37.884;2023-05-08T00:30:58;100432.22;;;30.38;21.04
54816;BME280;40715;55.752;37.884;2023-05-08T00:33:27;100440.22;;;30.39;21.28
54816;BME280;40715;55.752;37.884;2023-05-08T00:36:04;100436.09;;;30.45;21.27
54816;BME280;40715;55.752;37.884;2023-05-08T00:38:32;100444.66;;;30.40;21.21
54816;BME280;40715;55.752;37.884;2023-05-08T00:41:00;100441.06;;;30.40;20.92
54816;BME280;40715;55.752;37.884;2023-05-08T00:43:28;100450.09;;;30.40;21.12
54816;BME280;40715;55.752;37.884;2023-05-08T00:45:56;100446.63;;;30.38;21.17
54816;BME280;40715;55.752;37.884;2023-05-08T00:48:30;100443.78;;;30.40;21.21
54816;BME280;40715;55.752;37.884;2023-05-08T00:50:58;100449.22;;;30.40;21.41
54816;BME280;40715;55.752;37.884;2023-05-08T00:53:27;100449.22;;;30.40;21.39
54816;BME280;40715;55.752;37.884;2023-05-08T00:55:54;100451.81;;;30.41;20.93
54816;BME280;40715;55.752;37.884;2023-05-08T00:58:22;100450.94;;;30.41;21.32
54816;BME280;40715;55.752;37.884;2023-05-08T01:00:51;100448.22;;;30.41;21.46
54816;BME280;40715;55.752;37.884;2023-05-08T01:03:21;100451.81;;;30.41;21.41
54816;BME280;40715;55.752;37.884;2023-05-08T01:05:48;100449.09;;;30.41;21.47
54816;BME280;40715;55.752;37.884;2023-05-08T01:08:15;100452.66;;;30.42;21.32
54816;BME280;40715;55.752;37.884;2023-05-08T01:11:10;100449.69;;;30.45;21.33
54816;BME280;40715;55.752;37.884;2023-05-08T01:14:15;100448.25;;;30.60;20.92
54816;BME280;40715;55.752;37.884;2023-05-08T01:19:41;100451.97;;;30.50;21.25
54816;BME280;40715;55.752;37.884;2023-05-08T01:31:02;100463.00;;;30.58;21.24
54816;BME280;40715;55.752;37.884;2023-05-08T01:34:11;100464.88;;;30.57;21.24
54816;BME280;40715;55.752;37.884;2023-05-08T01:37:07;100465.28;;;30.53;21.18
54816;BME280;40715;55.752;37.884;2023-05-08T01:39:43;100470.13;;;30.39;21.48
54816;BME280;40715;55.752;37.884;2023-05-08T01:42:23;100469.13;;;30.40;21.41
54816;BME280;40715;55.752;37.884;2023-05-08T01:45:15;100471.59;;;30.53;21.41
54816;BME280;40715;55.752;37.884;2023-05-08T01:47:49;100468.38;;;30.38;21.22
54816;BME280;40715;55.752;37.884;2023-05-08T01:50:21;100472.28;;;30.36;21.29
54816;BME280;40715;55.752;37.884;2023-05-08T01:52:57;100472.97;;;30.38;21.65
54816;BME280;40715;55.752;37.884;2023-05-08T01:55:30;100475.69;;;30.38;21.56
54816;BME280;40715;55.752;37.884;2023-05-08T01:58:01;100472.13;;;30.37;21.22
54816;BME280;40715;55.752;37.884;2023-05-08T02:00:30;100479.25;;;30.38;21.35
54816;BME280;40715;55.752;37.884;2023-05-08T02:02:57;100477.44;;;30.39;21.43
54816;BME280;40715;55.752;37.884;2023-05-08T02:05:25;100481.00;;;30.39;21.59
54816;BME280;40715;55.752;37.884;2023-05-08T02:07:55;100476.53;;;30.38;21.39
54816;BME280;40715;55.752;37.884;2023-05-08T02:10:23;100481.00;;;30.39;21.52
54816;BME280;40715;55.752;37.884;2023-05-08T02:12:52;100487.28;;;30.40;21.50
54816;BME280;40715;55.752;37.884;2023-05-08T02:15:21;100491.88;;;30.39;21.35
54816;BME280;40715;55.752;37.884;2023-05-08T02:17:52;100489.00;;;30.41;21.55
54816;BME280;40715;55.752;37.884;2023-05-08T02:20:21;100487.28;;;30.40;21.34
54816;BME280;40715;55.752;37.884;2023-05-08T02:22:49;100490.00;;;30.40;21.34
54816;BME280;40715;55.752;37.884;2023-05-08T02:25:18;100494.03;;;30.36;21.50
54816;BME280;40715;55.752;37.884;2023-05-08T02:27:47;100490.84;;;30.30;21.74
54816;BME280;40715;55.752;37.884;2023-05-08T02:30:16;100490.56;;;30.34;21.40
54816;BME280;40715;55.752;37.884;2023-05-08T02:32:45;100489.72;;;30.33;21.71
54816;BME280;40715;55.752;37.884;2023-05-08T02:35:15;100496.00;;;30.34;21.44
54816;BME280;40715;55.752;37.884;2023-05-08T02:37:44;100504.16;;;30.34;21.77
54816;BME280;40715;55.752;37.884;2023-05-08T02:40:13;100510.44;;;30.34;21.71
54816;BME280;40715;55.752;37.884;2023-05-08T02:42:43;100510.34;;;30.36;21.60
54816;BME280;40715;55.752;37.884;2023-05-08T02:45:11;100505.16;;;30.33;21.30
54816;BME280;40715;55.752;37.884;2023-05-08T02:48:07;100510.09;;;30.49;21.70
54816;BME280;40715;55.752;37.884;2023-05-08T02:50:51;100509.03;;;30.40;21.67
54816;BME280;40715;55.752;37.884;2023-05-08T02:53:49;100522.25;;;30.54;21.62
54816;BME280;40715;55.752;37.884;2023-05-08T02:59:41;100523.34;;;30.42;21.80
54816;BME280;40715;55.752;37.884;2023-05-08T03:02:05;100517.59;;;30.35;21.56
54816;BME280;40715;55.752;37.884;2023-05-08T03:04:39;100519.63;;;30.33;21.50
54816;BME280;40715;55.752;37.884;2023-05-08T03:07:07;100530.50;;;30.33;21.95
54816;BME280;40715;55.752;37.884;2023-05-08T03:09:42;100524.03;;;30.34;21.70
54816;BME280;40715;55.752;37.884;2023-05-08T03:12:19;100527.19;;;30.39;21.86
54816;BME280;40715;55.752;37.884;2023-05-08T03:15:17;100528.84;;;30.52;21.58
54816;BME280;40715;55.752;37.884;2023-05-08T03:17:46;100532.38;;;30.42;21.85
54816;BME280;40715;55.752;37.884;2023-05-08T03:20:16;100537.38;;;30.37;21.91
54816;BME280;40715;55.752;37.884;2023-05-08T03:22:46;100532.78;;;30.38;21.78
54816;BME280;40715;55.752;37.884;2023-05-08T03:25:16;100545.38;;;30.39;21.59
54816;BME280;40715;55.752;37.884;2023-05-08T03:27:47;100549.81;;;30.40;21.98
54816;BME280;40715;55.752;37.884;2023-05-08T03:30:15;100552.53;;;30.40;21.89
54816;BME280;40715;55.752;37.884;2023-05-08T03:32:45;100544.25;;;30.41;21.99
54816;BME280;40715;55.752;37.884;2023-05-08T03:35:13;100555.25;;;30.40;21.71
54816;BME280;40715;55.752;37.884;2023-05-08T03:37:41;100560.56;;;30.41;21.58
54816;BME280;40715;55.752;37.884;2023-05-08T03:40:09;100553.16;;;30.43;21.94
54816;BME280;40715;55.752;37.884;2023-05-08T03:42:37;100552.28;;;30.43;21.60
54816;BME280;40715;55.752;37.884;2023-05-08T03:45:06;100558.44;;;30.45;21.99
54816;BME280;40715;55.752;37.884;2023-05-08T03:47:35;100551.72;;;30.49;21.76
54816;BME280;40715;55.752;37.884;2023-05-08T03:50:03;100565.47;;;30.48;21.88
54816;BME280;40715;55.752;37.884;2023-05-08T03:52:31;100565.31;;;30.49;22.10
54816;BME280;40715;55.752;37.884;2023-05-08T03:54:58;100573.03;;;30.54;21.91
54816;BME280;40715;55.752;37.884;2023-05-08T03:57:41;100560.34;;;30.54;21.80
54816;BME280;40715;55.752;37.884;2023-05-08T04:05:38;100558.47;;;30.55;21.84
54816;BME280;40715;55.752;37.884;2023-05-08T04:08:16;100561.75;;;30.58;21.89
54816;BME280;40715;55.752;37.884;2023-05-08T04:10:49;100557.19;;;30.59;21.95
54816;BME280;40715;55.752;37.884;2023-05-08T04:13:26;100561.63;;;30.60;21.81
54816;BME280;40715;55.752;37.884;2023-05-08T04:16:02;100566.91;;;30.61;21.95
54816;BME280;40715;55.752;37.884;2023-05-08T04:18:33;100569.78;;;30.60;22.18
54816;BME280;40715;55.752;37.884;2023-05-08T04:21:09;100557.88;;;30.61;22.28
54816;BME280;40715;55.752;37.884;2023-05-08T04:23:39;100560.59;;;30.61;21.86
54816;BME280;40715;55.752;37.884;2023-05-08T04:26:08;100563.31;;;30.61;21.99
54816;BME280;40715;55.752;37.884;2023-05-08T04:28:38;100564.06;;;30.63;21.83
54816;BME280;40715;55.752;37.884;2023-05-08T04:31:05;100565.91;;;30.62;22.13
54816;BME280;40715;55.752;37.884;2023-05-08T04:33:34;100555.44;;;30.58;21.89
54816;BME280;40715;55.752;37.884;2023-05-08T04:36:01;100569.34;;;30.64;22.01
54816;BME280;40715;55.752;37.884;2023-05-08T04:38:28;100561.34;;;30.63;21.95
54816;BME280;40715;55.752;37.884;2023-05-08T04:40:58;100557.44;;;30.66;22.11
54816;BME280;40715;55.752;37.884;2023-05-08T04:43:24;100568.31;;;30.66;21.99
54816;BME280;40715;55.752;37.884;2023-05-08T04:45:51;100563.75;;;30.66;22.23
54816;BME280;40715;55.752;37.884;2023-05-08T04:48:19;100565.50;;;30.67;22.23
54816;BME280;40715;55.752;37.884;2023-05-08T04:50:46;100565.34;;;30.69;22.22
54816;BME280;40715;55.752;37.884;2023-05-08T04:53:13;100567.78;;;30.72;22.13
54816;BME280;40715;55.752;37.884;2023-05-08T04:55:40;100573.91;;;30.74;21.88
54816;BME280;40715;55.752;37.884;2023-05-08T04:58:09;100573.06;;;30.73;22.24
54816;BME280;40715;55.752;37.884;2023-05-08T05:00:36;100574.66;;;30.76;22.17
54816;BME280;40715;55.752;37.884;2023-05-08T05:03:03;100572.09;;;30.74;22.30
54816;BME280;40715;55.752;37.884;2023-05-08T05:05:30;100575.50;;;30.76;22.16
54816;BME280;40715;55.752;37.884;2023-05-08T05:07:57;100583.66;;;30.76;22.14
54816;BME280;40715;55.752;37.884;2023-05-08T05:10:24;100582.69;;;30.77;22.13
54816;BME280;40715;55.752;37.884;2023-05-08T05:12:51;100581.94;;;30.75;22.37
54816;BME280;40715;55.752;37.884;2023-05-08T05:15:19;100588.97;;;30.78;22.52
54816;BME280;40715;55.752;37.884;2023-05-08T05:17:46;100588.81;;;30.79;22.22
54816;BME280;40715;55.752;37.884;2023-05-08T05:20:13;100595.13;;;30.80;22.53
54816;BME280;40715;55.752;37.884;2023-05-08T05:22:40;100592.28;;;30.81;22.48
54816;BME280;40715;55.752;37.884;2023-05-08T05:25:08;100595.00;;;30.81;22.46
54816;BME280;40715;55.752;37.884;2023-05-08T05:27:35;100598.56;;;30.82;22.30
54816;BME280;40715;55.752;37.884;2023-05-08T05:30:03;100600.69;;;30.88;22.27
54816;BME280;40715;55.752;37.884;2023-05-08T05:32:32;100600.28;;;30.93;22.22
54816;BME280;40715;55.752;37.884;2023-05-08T05:34:59;100602.13;;;30.92;22.25
54816;BME280;40715;55.752;37.884;2023-05-08T05:37:26;100600.84;;;30.87;22.41
54816;BME280;40715;55.752;37.884;2023-05-08T05:39:53;100602.72;;;30.86;22.72
54816;BME280;40715;55.752;37.884;2023-05-08T05:42:20;100601.88;;;30.86;22.53
54816;BME280;40715;55.752;37.884;2023-05-08T05:44:47;100605.28;;;30.88;22.63
54816;BME280;40715;55.752;37.884;2023-05-08T05:47:14;100597.13;;;30.88;22.64
54816;BME280;40715;55.752;37.884;2023-05-08T05:49:41;100602.44;;;30.89;22.39
54816;BME280;40715;55.752;37.884;2023-05-08T05:52:13;100596.00;;;30.90;22.39
54816;BME280;40715;55.752;37.884;2023-05-08T05:54:40;100597.72;;;30.91;22.85
54816;BME280;40715;55.752;37.884;2023-05-08T05:57:08;100600.00;;;30.96;22.76
54816;BME280;40715;55.752;37.884;2023-05-08T05:59:35;100589.97;;;30.96;22.96
54816;BME280;40715;55.752;37.884;2023-05-08T06:02:02;100596.00;;;31.00;22.86
54816;BME280;40715;55.752;37.884;2023-05-08T06:04:29;100591.28;;;31.02;23.21
54816;BME280;40715;55.752;37.884;2023-05-08T06:06:57;100603.75;;;31.05;23.18
54816;BME280;40715;55.752;37.884;2023-05-08T06:09:24;100596.16;;;31.08;22.92
54816;BME280;40715;55.752;37.884;2023-05-08T06:11:51;100604.19;;;31.10;22.95
54816;BME280;40715;55.752;37.884;2023-05-08T06:14:18;100599.31;;;31.13;23.10
54816;BME280;40715;55.752;37.884;2023-05-08T06:16:46;100611.78;;;31.16;22.72
54816;BME280;40715;55.752;37.884;2023-05-08T06:19:13;100602.63;;;31.17;22.62
54816;BME280;40715;55.752;37.884;2023-05-08T06:21:40;100604.47;;;31.17;22.87
54816;BME280;40715;55.752;37.884;2023-05-08T06:24:07;100612.34;;;31.20;22.71
54816;BME280;40715;55.752;37.884;2023-05-08T06:26:34;100615.06;;;31.20;22.99
54816;BME280;40715;55.752;37.884;2023-05-08T06:29:01;100614.94;;;31.21;22.54
54816;BME280;40715;55.752;37.884;2023-05-08T06:31:28;100614.66;;;31.24;22.70
54816;BME280;40715;55.752;37.884;2023-05-08T06:33:55;100597.31;;;31.15;22.76
54816;BME280;40715;55.752;37.884;2023-05-08T06:36:23;100605.75;;;31.22;22.38
54816;BME280;40715;55.752;37.884;2023-05-08T06:38:50;100608.75;;;31.19;22.78
54816;BME280;40715;55.752;37.884;2023-05-08T06:41:18;100610.34;;;31.22;22.55
54816;BME280;40715;55.752;37.884;2023-05-08T06:43:45;100607.03;;;31.18;22.57
54816;BME280;40715;55.752;37.884;2023-05-08T06:46:12;100603.75;;;31.14;22.55
54816;BME280;40715;55.752;37.884;2023-05-08T06:48:39;100604.91;;;31.12;22.83
54816;BME280;40715;55.752;37.884;2023-05-08T06:51:06;100601.47;;;31.10;22.66
54816;BME280;40715;55.752;37.884;2023-05-08T06:53:33;100600.44;;;31.11;22.64
54816;BME280;40715;55.752;37.884;2023-05-08T06:56:00;100602.19;;;31.12;22.97
54816;BME280;40715;55.752;37.884;2023-05-08T06:58:27;100606.03;;;31.09;22.61
54816;BME280;40715;55.752;37.884;2023-05-08T07:01:00;100592.72;;;31.06;22.70
54816;BME280;40715;55.752;37.884;2023-05-08T07:03:27;100585.25;;;31.08;22.75
54816;BME280;40715;55.752;37.884;2023-05-08T07:05:54;100595.00;;;31.11;22.82
54816;BME280;40715;55.752;37.884;2023-05-08T07:08:21;100595.88;;;31.11;22.95
54816;BME280;40715;55.752;37.884;2023-05-08T07:10:49;100592.44;;;31.09;22.57
54816;BME280;40715;55.752;37.884;2023-05-08T07:13:16;100587.88;;;31.10;22.63
54816;BME280;40715;55.752;37.884;2023-05-08T07:15:47;100589.56;;;31.11;22.84
54816;BME280;40715;55.752;37.884;2023-05-08T07:18:14;100587.00;;;31.09;22.60
54816;BME280;40715;55.752;37.884;2023-05-08T07:20:41;100589.00;;;31.07;22.60
54816;BME280;40715;55.752;37.884;2023-05-08T07:23:08;100592.72;;;31.06;22.85
54816;BME280;40715;55.752;37.884;2023-05-08T07:25:35;100583.88;;;31.04;22.54
54816;BME280;40715;55.752;37.884;2023-05-08T07:28:02;100587.56;;;31.03;22.88
54816;BME280;40715;55.752;37.884;2023-05-08T07:30:29;100586.72;;;31.03;22.56
54816;BME280;40715;55.752;37.884;2023-05-08T07:32:57;100591.16;;;31.04;22.79
54816;BME280;40715;55.752;37.884;2023-05-08T07:35:24;100585.13;;;31.00;22.74
54816;BME280;40715;55.752;37.884;2023-05-08T07:37:51;100585.00;;;31.02;22.78
54816;BME280;40715;55.752;37.884;2023-05-08T07:40:18;100582.53;;;30.98;22.69
54816;BME280;40715;55.752;37.884;2023-05-08T07:42:45;100580.97;;;30.96;22.65
54816;BME280;40715;55.752;37.884;2023-05-08T07:45:13;100580.81;;;30.97;22.90
54816;BME280;40715;55.752;37.884;2023-05-08T07:47:54;100578.41;;;31.04;22.73
54816;BME280;40715;55.752;37.884;2023-05-08T07:50:23;100578.09;;;30.97;22.46
54816;BME280;40715;55.752;37.884;2023-05-08T07:52:50;100583.81;;;30.94;22.59
54816;BME280;40715;55.752;37.884;2023-05-08T07:55:18;100580.09;;;30.95;22.54
54816;BME280;40715;55.752;37.884;2023-05-08T07:57:46;100578.25;;;30.96;22.67
54816;BME280;40715;55.752;37.884;2023-05-08T08:00:14;100579.38;;;30.93;22.82
54816;BME280;40715;55.752;37.884;2023-05-08T08:02:42;100575.81;;;30.93;22.46
54816;BME280;40715;55.752;37.884;2023-05-08T08:05:10;100577.50;;;30.94;22.83
54816;BME280;40715;55.752;37.884;2023-05-08T08:07:37;100577.50;;;30.94;22.83
54816;BME280;40715;55.752;37.884;2023-05-08T08:10:05;100577.66;;;30.92;22.68
54816;BME280;40715;55.752;37.884;2023-05-08T08:12:32;100567.50;;;30.94;22.85
54816;BME280;40715;55.752;37.884;2023-05-08T08:14:59;100567.66;;;30.93;22.81
54816;BME280;40715;55.752;37.884;2023-05-08T08:17:28;100571.22;;;30.93;22.49
54816;BME280;40715;55.752;37.884;2023-05-08T08:19:55;100577.50;;;30.94;22.82
54816;BME280;40715;55.752;37.884;2023-05-08T08:22:24;100578.53;;;30.93;22.37
54816;BME280;40715;55.752;37.884;2023-05-08T08:24:53;100566.78;;;30.92;22.51
54816;BME280;40715;55.752;37.884;2023-05-08T08:27:21;100577.50;;;30.94;22.37
54816;BME280;40715;55.752;37.884;2023-05-08T08:29:49;100569.50;;;30.92;22.44
54816;BME280;40715;55.752;37.884;2023-05-08T08:32:18;100568.63;;;30.92;22.26
54816;BME280;40715;55.752;37.884;2023-05-08T08:34:45;100558.06;;;30.89;22.42
54816;BME280;40715;55.752;37.884;2023-05-08T08:37:12;100567.66;;;30.93;22.56
54816;BME280;40715;55.752;37.884;2023-05-08T08:39:39;100565.91;;;30.92;22.59
54816;BME280;40715;55.752;37.884;2023-05-08T08:42:06;100565.06;;;30.91;22.44
54816;BME280;40715;55.752;37.884;2023-05-08T08:44:33;100560.34;;;30.93;22.52
54816;BME280;40715;55.752;37.884;2023-05-08T08:47:01;100565.91;;;30.92;22.18
54816;BME280;40715;55.752;37.884;2023-05-08T08:49:34;100565.06;;;30.91;22.58
54816;BME280;40715;55.752;37.884;2023-05-08T08:52:05;100572.34;;;30.91;22.34
54816;BME280;40715;55.752;37.884;2023-05-08T08:54:33;100567.78;;;30.91;22.04
54816;BME280;40715;55.752;37.884;2023-05-08T08:57:05;100567.91;;;30.90;22.16
54816;BME280;40715;55.752;37.884;2023-05-08T08:59:37;100560.78;;;30.89;22.11
54816;BME280;40715;55.752;37.884;2023-05-08T09:02:08;100550.88;;;30.88;22.30
54816;BME280;40715;55.752;37.884;2023-05-08T09:04:37;100555.47;;;30.87;22.15
54816;BME280;40715;55.752;37.884;2023-05-08T09:07:05;100557.59;;;30.84;22.20
54816;BME280;40715;55.752;37.884;2023-05-08T09:09:35;100553.91;;;30.85;22.37
54816;BME280;40715;55.752;37.884;2023-05-08T09:12:06;100556.03;;;30.81;22.66
54816;BME280;40715;55.752;37.884;2023-05-08T09:14:34;100564.78;;;30.85;22.53
54816;BME280;40715;55.752;37.884;2023-05-08T09:17:01;100562.34;;;30.81;22.94
54816;BME280;40715;55.752;37.884;2023-05-08T09:19:29;100565.22;;;30.80;22.80
54816;BME280;40715;55.752;37.884;2023-05-08T09:22:00;100556.91;;;30.81;22.91
54816;BME280;40715;55.752;37.884;2023-05-08T09:24:56;100555.19;;;31.00;22.86
54816;BME280;40715;55.752;37.884;2023-05-08T09:27:26;100566.06;;;30.90;22.79
54816;BME280;40715;55.752;37.884;2023-05-08T09:32:34;100566.91;;;30.91;22.66
54816;BME280;40715;55.752;37.884;2023-05-08T09:35:03;100567.78;;;30.91;22.78
54816;BME280;40715;55.752;37.884;2023-05-08T09:37:32;100556.75;;;30.93;22.81
54816;BME280;40715;55.752;37.884;2023-05-08T09:40:19;100554.06;;;31.03;22.93
54816;BME280;40715;55.752;37.884;2023-05-08T09:42:49;100555.59;;;30.95;22.75
54816;BME280;40715;55.752;37.884;2023-05-08T09:45:29;100556.66;;;31.04;22.87
54816;BME280;40715;55.752;37.884;2023-05-08T09:47:57;100554.19;;;31.01;23.15
54816;BME280;40715;55.752;37.884;2023-05-08T09:50:25;100546.91;;;31.02;23.21
54816;BME280;40715;55.752;37.884;2023-05-08T09:52:53;100540.59;;;31.01;23.12
54816;BME280;40715;55.752;37.884;2023-05-08T09:55:20;100555.22;;;31.10;23.18
54816;BME280;40715;55.752;37.884;2023-05-08T09:57:58;100548.19;;;31.17;23.11
54816;BME280;40715;55.752;37.884;2023-05-08T10:00:27;100543.00;;;31.14;23.49
54816;BME280;40715;55.752;37.884;2023-05-08T10:03:02;100535.56;;;31.16;23.11
54816;BME280;40715;55.752;37.884;2023-05-08T10:05:34;100534.28;;;31.20;23.53
54816;BME280;40715;55.752;37.884;2023-05-08T10:08:21;100546.00;;;31.30;23.32
54816;BME280;40715;55.752;37.884;2023-05-08T10:10:49;100541.84;;;31.26;23.53
54816;BME280;40715;55.752;37.884;2023-05-08T10:13:16;100534.28;;;31.20;23.48
54816;BME280;40715;55.752;37.884;2023-05-08T10:15:44;100543.44;;;31.19;23.55
54816;BME280;40715;55.752;37.884;2023-05-08T10:18:16;100541.28;;;31.23;23.37
54816;BME280;40715;55.752;37.884;2023-05-08T10:20:45;100544.72;;;31.25;23.60
54816;BME280;40715;55.752;37.884;2023-05-08T10:23:14;100540.13;;;31.25;23.56
54816;BME280;40715;55.752;37.884;2023-05-08T10:25:47;100544.41;;;31.28;23.94
54816;BME280;40715;55.752;37.884;2023-05-08T10:28:42;100539.22;;;31.44;23.74
54816;BME280;40715;55.752;37.884;2023-05-08T10:31:16;100535.09;;;31.30;23.69
54816;BME280;40715;55.752;37.884;2023-05-08T10:33:44;100538.53;;;31.32;23.72
54816;BME280;40715;55.752;37.884;2023-05-08T10:36:16;100528.50;;;31.33;23.63
54816;BME280;40715;55.752;37.884;2023-05-08T10:38:44;100528.50;;;31.33;24.03
54816;BME280;40715;55.752;37.884;2023-05-08T10:41:12;100532.09;;;31.33;24.21
54816;BME280;40715;55.752;37.884;2023-05-08T10:43:42;100528.38;;;31.35;24.46
54816;BME280;40715;55.752;37.884;2023-05-08T10:46:24;100523.19;;;31.41;24.13
54816;BME280;40715;55.752;37.884;2023-05-08T10:55:28;100524.16;;;31.60;24.28
54816;BME280;40715;55.752;37.884;2023-05-08T10:58:14;100526.59;;;31.53;24.41
54816;BME280;40715;55.752;37.884;2023-05-08T11:03:19;100518.75;;;31.40;25.37
54816;BME280;40715;55.752;37.884;2023-05-08T11:05:58;100512.47;;;31.40;24.91
54816;BME280;40715;55.752;37.884;2023-05-08T11:08:27;100508.16;;;31.37;24.85
54816;BME280;40715;55.752;37.884;2023-05-08T11:13:31;100514.00;;;31.42;24.96
54816;BME280;40715;55.752;37.884;2023-05-08T11:15:59;100514.00;;;31.42;25.31
54816;BME280;40715;55.752;37.884;2023-05-08T11:18:28;100516.03;;;31.40;25.22
54816;BME280;40715;55.752;37.884;2023-05-08T11:21:14;100507.56;;;31.43;24.82
54816;BME280;40715;55.752;37.884;2023-05-08T11:23:41;100512.31;;;31.41;24.60
54816;BME280;40715;55.752;37.884;2023-05-08T11:26:12;100504.28;;;31.40;24.91
54816;BME280;40715;55.752;37.884;2023-05-08T11:28:55;100508.53;;;31.52;24.80
54816;BME280;40715;55.752;37.884;2023-05-08T11:31:48;100501.34;;;31.61;24.37
54816;BME280;40715;55.752;37.884;2023-05-08T11:37:29;100513.13;;;31.52;24.33
54816;BME280;40715;55.752;37.884;2023-05-08T11:43:44;100507.53;;;31.63;24.50
54816;BME280;40715;55.752;37.884;2023-05-08T11:46:16;100499.19;;;31.55;24.22
54816;BME280;40715;55.752;37.884;2023-05-08T11:48:43;100508.41;;;32.19;23.51
54816;BME280;40715;55.752;37.884;2023-05-08T11:51:10;100509.53;;;31.61;24.34
54816;BME280;40715;55.752;37.884;2023-05-08T11:53:39;100504.53;;;31.46;24.38
54816;BME280;40715;55.752;37.884;2023-05-08T11:56:06;100495.50;;;31.46;24.63
54816;BME280;40715;55.752;37.884;2023-05-08T11:58:34;100502.53;;;31.48;24.44
54816;BME280;40715;55.752;37.884;2023-05-08T12:01:02;100504.53;;;31.46;24.67
54816;BME280;40715;55.752;37.884;2023-05-08T12:03:31;100506.94;;;31.49;24.57
54816;BME280;40715;55.752;37.884;2023-05-08T12:05:59;100505.41;;;31.47;24.24
54816;BME280;40715;55.752;37.884;2023-05-08T12:08:26;100518.00;;;31.48;24.47
54816;BME280;40715;55.752;37.884;2023-05-08T12:10:56;100506.25;;;31.47;24.54
54816;BME280;40715;55.752;37.884;2023-05-08T12:13:28;100513.56;;;31.47;24.35
54816;BME280;40715;55.752;37.884;2023-05-08T12:15:59;100508.13;;;31.47;24.23
54816;BME280;40715;55.752;37.884;2023-05-08T12:18:27;100506.56;;;31.44;24.20
54816;BME280;40715;55.752;37.884;2023-05-08T12:20:58;100507.25;;;31.46;24.22
54816;BME280;40715;55.752;37.884;2023-05-08T12:23:29;100498.38;;;31.44;24.49
54816;BME280;40715;55.752;37.884;2023-05-08T12:26:00;100505.53;;;31.45;24.45
54816;BME280;40715;55.752;37.884;2023-05-08T12:28:28;100503.84;;;31.44;24.58
54816;BME280;40715;55.752;37.884;2023-05-08T12:30:55;100505.69;;;31.44;24.45
54816;BME280;40715;55.752;37.884;2023-05-08T12:33:23;100505.97;;;31.41;24.24
54816;BME280;40715;55.752;37.884;2023-05-08T12:35:50;100488.22;;;31.37;23.96
54816;BME280;40715;55.752;37.884;2023-05-08T12:38:17;100497.09;;;31.48;23.93
54816;BME280;40715;55.752;37.884;2023-05-08T12:40:46;100497.09;;;31.48;24.16
54816;BME280;40715;55.752;37.884;2023-05-08T12:43:18;100492.50;;;31.49;24.21
54816;BME280;40715;55.752;37.884;2023-05-08T12:45:46;100488.19;;;31.46;24.26
54816;BME280;40715;55.752;37.884;2023-05-08T12:48:16;100489.47;;;31.52;24.01
54816;BME280;40715;55.752;37.884;2023-05-08T12:50:44;100486.34;;;31.47;24.22
54816;BME280;40715;55.752;37.884;2023-05-08T12:53:13;100482.59;;;31.48;24.22
54816;BME280;40715;55.752;37.884;2023-05-08T12:56:04;100489.88;;;31.67;23.94
54816;BME280;40715;55.752;37.884;2023-05-08T12:58:33;100478.72;;;31.50;24.20
54816;BME280;40715;55.752;37.884;2023-05-08T13:01:05;100483.47;;;31.48;23.93
54816;BME280;40715;55.752;37.884;2023-05-08T13:03:33;100480.75;;;31.48;24.05
54816;BME280;40715;55.752;37.884;2023-05-08T13:06:01;100473.00;;;31.44;24.19
54816;BME280;40715;55.752;37.884;2023-05-08T13:08:32;100473.56;;;31.47;24.47
54816;BME280;40715;55.752;37.884;2023-05-08T13:11:01;100470.69;;;31.49;24.04
54816;BME280;40715;55.752;37.884;2023-05-08T13:13:31;100472.56;;;31.48;23.97
54816;BME280;40715;55.752;37.884;2023-05-08T13:16:02;100467.97;;;31.49;24.49
54816;BME280;40715;55.752;37.884;2023-05-08T13:18:30;100469.69;;;31.50;24.25
54816;BME280;40715;55.752;37.884;2023-05-08T13:20:57;100463.53;;;31.48;24.74
54816;BME280;40715;55.752;37.884;2023-05-08T13:23:25;100465.09;;;31.50;24.87
54816;BME280;40715;55.752;37.884;2023-05-08T13:25:52;100466.25;;;31.48;24.63
54816;BME280;40715;55.752;37.884;2023-05-08T13:28:19;100470.56;;;31.50;24.66
54816;BME280;40715;55.752;37.884;2023-05-08T13:30:47;100469.56;;;31.52;24.42
54816;BME280;40715;55.752;37.884;2023-05-08T13:33:14;100473.13;;;31.52;24.07
54816;BME280;40715;55.752;37.884;2023-05-08T13:35:41;100465.94;;;31.51;23.54
54816;BME280;40715;55.752;37.884;2023-05-08T13:38:08;100464.41;;;31.48;23.59